Airways and Terminal Forecast

Significant Meteorological Information

Twitter

 

 

Terminal Aerodrome Forecast

TAF RPLL

232300Z 2400/2506 12006KT 9999 FEW025 SCT300 TX34/2406Z TN28/2421Z TEMPO 2400/2406 14010KT FEW022CB FEW023 BKN300 TEMPO 2406/2412 16015KT 9000 −TSRA FEW022CB SCT023 BKN090=

TAF RPVM

232300Z 2400/2506 09005KT 9999 FEW020 BKN300 TEMPO 2400/2406 12010KT FEW018CB FEW020 BKN100 TEMPO 2406/2412 05008KT 8000 −TSRA FEW018CB SCT020 BKN090=

TAF RPLC

232300Z 2400/2506 19005KT 9999 FEW020 BKN300 TX35/2406Z TN25/2422Z TEMPO 2400/2406 15010KT SCT020 BKN100 TEMPO 2406/2412 22008KT 9000 −TSRA FEW018CB SCT020 OVC100=

TAF RPLB

232300Z 2400/2424 26005KT 9999 FEW020 BKN300 TX32/2406Z TN25/2422Z TEMPO 2403/2409 21011KT 7000 −TSRA FEW018CB SCT020 BKN080=

TAF RPLI

232300Z 2400/2424 34006KT 9999 FEW018 SCT290 TEMPO 2403/2409 32010KT FEW017CB FEW018 BKN290=

TAF RPVP

232300Z 2400/2424 29006KT 9999 FEW019 SCT080 BKN240 TEMPO 2402/2408 18010KT 9000 −TSRA FEW017CB SCT019 BKN080=

TAF RPVD

232300Z 2400/2424 22006KT 9999 FEW015 BKN220 TEMPO 2400/2406 16008KT 9000 −SHRA FEW014CB SCT015 BKN070=

TAF RPMR

232300Z 2400/2424 18006KT 9999 FEW018 SCT080 TEMPO 2400/2406 14008KT 9000 −SHRA FEW017CB SCT018 BKN080=

TAF RPMD

232300Z 2400/2424 18005KT 9999 FEW016 SCT290 TEMPO 2403/2409 16008KT FEW015CB FEW016 BKN290=

TAF RPMZ

232300Z 2400/2424 26006KT 9999 FEW017 BKN300 TEMPO 2403/2409 27010KT 9000 −TSRA FEW016CB SCT017 BKN090=

 

RPLL FORECAST TAKE-OFF CONDITION

TIME

(UTC)

WIND

(dddffKT)

TEMP

(°C)

QNH

(hPa)

TIME

(UTC)

WIND

(dddffKT)

TEMP

(°C)

QNH

(hPa)

0000

14006KT

29.0

1010.0

0400

14010KT

33.0

1010.0

0100

12008KT

30.0

1010.5

0500

14010KT

33.5

1009.5

0200

12008KT

31.0

1011.0

0600

16012KT

34.0

1009.0

0300

13009KT

32.0

1010.5

0700

16014KT

33.5

1008.5

 

ISSUED AT NAIA AMSS-WD/PAGASA-DOST FOR 2300UTC 23 MAY 2019

PREPARED BY:  AYN                                                                                                                 

CHECKED BY:   GSS